Time;durP1;ratioP1;P1;durP2;ratioP2;P2;SDS_P1;SDS_P2;PMS_P1;PMS_P2;Temp;Humidity;BMP_temperature;BMP_pressure;BME280_temperature;BME280_humidity;BME280_pressure;Samples;Min_cycle;Max_cycle;Signal;HPM_P1;HPM_P2
2021/07/11 00:00:24;;;;;;;;;;;;;;;22.75;60.90;100681.75;438348;120;922639;-73
2021/07/11 00:01:27;;;;;;;;;;;;;;;22.73;60.91;100680.37;438481;120;922685;-72
2021/07/11 00:02:33;;;;;;;;;;;;;;;22.72;60.87;100687.87;445351;117;923826;-72
2021/07/11 00:03:36;;;;;;;;;;;;;;;22.70;60.97;100684.55;435887;120;921668;-71
2021/07/11 00:04:40;;;;;;;;;;;;;;;22.69;61.02;100682.05;436709;119;921478;-71
2021/07/11 00:05:43;;;;;;;;;;;;;;;22.67;61.04;100690.67;446614;117;921476;-70
2021/07/11 00:06:46;;;;;;;;;;;;;;;22.66;61.09;100686.23;440481;119;921558;-70
2021/07/11 00:07:49;;;;;;;;;;;;;;;22.65;61.11;100681.81;439847;119;921394;-70
2021/07/11 00:08:54;;;;;;;;;;;;;;;22.65;61.15;100686.55;441056;119;922093;-73
2021/07/11 00:09:58;;;;;;;;;;;;;;;22.63;61.15;100689.61;446304;118;921561;-73
2021/07/11 00:11:01;;;;;;;;;;;;;;;22.61;61.15;100686.28;442010;118;921874;-73
2021/07/11 00:12:05;;;;;;;;;;;;;;;22.61;61.16;100694.62;442352;120;921446;-71
2021/07/11 00:13:08;;;;;;;;;;;;;;;22.60;61.19;100683.81;446967;117;921455;-70
2021/07/11 00:14:12;;;;;;;;;;;;;;;22.59;61.23;100688.55;439407;117;922719;-71
2021/07/11 00:15:16;;;;;;;;;;;;;;;22.58;61.16;100686.05;445682;117;923622;-70
2021/07/11 00:16:21;;;;;;;;;;;;;;;22.57;61.11;100689.94;446727;117;922649;-72
2021/07/11 00:17:25;;;;;;;;;;;;;;;22.55;61.07;100686.64;446174;117;922691;-70
2021/07/11 00:18:29;;;;;;;;;;;;;;;22.55;61.14;100687.44;455360;114;922744;-71
2021/07/11 00:19:32;;;;;;;;;;;;;;;22.53;61.14;100683.31;438815;119;923131;-73
2021/07/11 00:20:36;;;;;;;;;;;;;;;22.51;61.14;100685.55;439722;119;923184;-70
2021/07/11 00:21:39;;;;;;;;;;;;;;;22.49;61.13;100683.08;456163;115;922731;-70
2021/07/11 00:22:43;;;;;;;;;;;;;;;22.48;61.22;100686.14;446768;118;923030;-73
2021/07/11 00:23:47;;;;;;;;;;;;;;;22.46;61.21;100683.64;446578;115;922917;-73
2021/07/11 00:24:51;;;;;;;;;;;;;;;22.46;61.22;100686.42;447293;119;923660;-71
2021/07/11 00:25:54;;;;;;;;;;;;;;;22.45;61.23;100676.42;440405;119;922716;-70
2021/07/11 00:26:57;;;;;;;;;;;;;;;22.44;61.33;100680.31;455329;115;922842;-72
2021/07/11 00:28:00;;;;;;;;;;;;;;;22.44;61.30;100675.59;454605;115;922655;-73
2021/07/11 00:29:04;;;;;;;;;;;;;;;22.45;61.25;100676.42;454590;117;922645;-69
2021/07/11 00:30:08;;;;;;;;;;;;;;;22.44;61.27;100677.53;454437;115;922732;-70
2021/07/11 00:31:11;;;;;;;;;;;;;;;22.43;61.28;100675.91;454638;115;922645;-70
2021/07/11 00:32:14;;;;;;;;;;;;;;;22.41;61.29;100678.13;453508;115;924385;-70
2021/07/11 00:33:18;;;;;;;;;;;;;;;22.40;61.32;100679.25;453459;115;922444;-70
2021/07/11 00:34:21;;;;;;;;;;;;;;;22.38;61.37;100681.51;453564;115;922655;-70
2021/07/11 00:35:24;;;;;;;;;;;;;;;22.36;61.43;100678.18;445761;114;922655;-70
2021/07/11 00:36:28;;;;;;;;;;;;;;;22.36;61.53;100680.95;444866;117;922693;-68
2021/07/11 00:37:32;;;;;;;;;;;;;;;22.37;61.56;100683.45;438411;119;922671;-70
2021/07/11 00:38:35;;;;;;;;;;;;;;;22.37;61.60;100686.23;431444;121;923557;-70
2021/07/11 00:39:39;;;;;;;;;;;;;;;22.38;61.65;100690.64;438315;119;923094;-72
2021/07/11 00:40:43;;;;;;;;;;;;;;;22.38;61.68;100681.51;440403;119;922631;-71
2021/07/11 00:41:46;;;;;;;;;;;;;;;22.36;61.77;100684.56;440687;121;922728;-70
2021/07/11 00:42:49;;;;;;;;;;;;;;;22.35;61.86;100677.34;446120;117;922831;-70
2021/07/11 00:43:53;;;;;;;;;;;;;;;22.35;61.90;100680.13;445426;117;921528;-72
2021/07/11 00:44:57;;;;;;;;;;;;;;;22.36;61.92;100683.73;438056;119;921576;-71
2021/07/11 00:46:01;;;;;;;;;;;;;;;22.37;61.93;100680.67;438225;118;922632;-70
2021/07/11 00:47:06;;;;;;;;;;;;;;;22.39;61.92;100683.14;438952;120;922009;-73
2021/07/11 00:48:09;;;;;;;;;;;;;;;22.40;61.89;100674.52;448086;117;921577;-71
2021/07/11 00:49:13;;;;;;;;;;;;;;;22.41;61.89;100678.97;438493;119;921623;-71
2021/07/11 00:50:18;;;;;;;;;;;;;;;22.42;61.88;100677.02;431658;122;921531;-73
2021/07/11 00:51:23;;;;;;;;;;;;;;;22.43;61.87;100678.69;445177;117;921739;-73
2021/07/11 00:52:27;;;;;;;;;;;;;;;22.44;61.90;100678.38;438410;119;921606;-73
2021/07/11 00:53:31;;;;;;;;;;;;;;;22.45;61.93;100676.42;438915;119;921592;-73
2021/07/11 00:54:34;;;;;;;;;;;;;;;22.46;61.96;100676.14;444963;115;921477;-73
2021/07/11 00:55:38;;;;;;;;;;;;;;;22.47;61.93;100674.20;438738;119;921433;-72
2021/07/11 00:56:44;;;;;;;;;;;;;;;22.48;61.93;100675.03;435812;119;921430;-72
2021/07/11 00:57:47;;;;;;;;;;;;;;;22.48;61.93;100675.86;440603;119;921692;-73
2021/07/11 00:58:51;;;;;;;;;;;;;;;22.48;61.94;100675.03;440508;119;921543;-73
2021/07/11 00:59:54;;;;;;;;;;;;;;;22.48;61.94;100678.64;440072;118;921648;-73
2021/07/11 01:00:59;;;;;;;;;;;;;;;22.48;61.96;100675.86;446057;117;921688;-73
2021/07/11 01:02:04;;;;;;;;;;;;;;;22.48;61.90;100675.86;445522;117;921550;-71
2021/07/11 01:03:10;;;;;;;;;;;;;;;22.48;61.91;100681.41;444755;117;921648;-73
2021/07/11 01:04:22;;;;;;;;;;;;;;;22.49;61.89;100676.69;447378;118;921572;-73
2021/07/11 01:05:26;;;;;;;;;;;;;;;22.48;61.88;100675.03;446974;116;921667;-72
2021/07/11 01:06:32;;;;;;;;;;;;;;;22.47;61.90;100676.97;446899;117;921483;-72
2021/07/11 01:07:37;;;;;;;;;;;;;;;22.45;61.94;100680.03;447082;117;922707;-70
2021/07/11 01:08:42;;;;;;;;;;;;;;;22.45;61.95;100676.42;445140;117;922717;-71
2021/07/11 01:09:47;;;;;;;;;;;;;;;22.43;62.05;100673.12;440000;119;922710;-70
2021/07/11 01:10:59;;;;;;;;;;;;;;;22.40;62.18;100671.75;441196;119;922687;-72
2021/07/11 01:12:04;;;;;;;;;;;;;;;22.36;62.25;100670.68;435395;119;923146;-73
2021/07/11 01:13:10;;;;;;;;;;;;;;;22.32;62.36;100666.83;441464;119;921607;-74
2021/07/11 01:14:15;;;;;;;;;;;;;;;22.29;62.42;100667.39;441181;119;922553;-72
2021/07/11 01:15:19;;;;;;;;;;;;;;;22.26;62.53;100665.21;441015;119;922647;-73
2021/07/11 01:16:26;;;;;;;;;;;;;;;22.24;62.64;100663.83;441674;119;921643;-72
2021/07/11 01:17:32;;;;;;;;;;;;;;;22.21;62.72;100676.36;439873;118;923184;-70
2021/07/11 01:18:39;;;;;;;;;;;;;;;22.20;62.82;100677.48;441367;119;922756;-72
2021/07/11 01:19:46;;;;;;;;;;;;;;;22.18;62.94;100670.54;448196;116;922310;-71
2021/07/11 01:20:59;;;;;;;;;;;;;;;22.19;63.03;100672.20;441002;119;923111;-72
2021/07/11 01:22:06;;;;;;;;;;;;;;;22.19;63.03;100674.98;440867;119;923227;-73
2021/07/11 01:23:12;;;;;;;;;;;;;;;22.20;63.01;100674.70;448168;116;921536;-71
2021/07/11 01:24:27;;;;;;;;;;;;;;;22.21;63.03;100669.98;440540;118;923183;-73
2021/07/11 01:25:38;;;;;;;;;;;;;;;22.21;63.02;100675.53;434078;120;922710;-72
2021/07/11 01:26:43;;;;;;;;;;;;;;;22.20;63.06;100669.14;448441;116;922681;-69
2021/07/11 01:27:47;;;;;;;;;;;;;;;22.20;63.10;100673.87;448655;119;921830;-70
2021/07/11 01:28:52;;;;;;;;;;;;;;;22.19;63.10;100677.76;448482;118;921879;-71
2021/07/11 01:29:57;;;;;;;;;;;;;;;22.17;63.17;100680.81;448714;116;921418;-70
2021/07/11 01:31:01;;;;;;;;;;;;;;;22.14;63.27;100670.30;447153;116;921675;-70
2021/07/11 01:32:06;;;;;;;;;;;;;;;22.12;63.32;100671.70;447468;116;923032;-69
2021/07/11 01:33:10;;;;;;;;;;;;;;;22.09;63.43;100673.12;441335;118;922685;-68
2021/07/11 01:34:14;;;;;;;;;;;;;;;22.05;63.50;100675.62;440842;119;921436;-72
2021/07/11 01:35:17;;;;;;;;;;;;;;;22.04;63.58;100673.16;446834;116;921549;-72
2021/07/11 01:36:23;;;;;;;;;;;;;;;22.02;63.59;100675.38;430790;121;921542;-71
2021/07/11 01:37:29;;;;;;;;;;;;;;;22.01;63.64;100680.10;440279;116;922687;-71
2021/07/11 01:38:34;;;;;;;;;;;;;;;22.02;63.69;100678.16;441364;117;921502;-73
2021/07/11 01:39:38;;;;;;;;;;;;;;;22.01;63.71;100679.27;442249;118;921594;-73
2021/07/11 01:40:42;;;;;;;;;;;;;;;22.00;63.81;100672.88;448644;117;921731;-73
2021/07/11 01:41:47;;;;;;;;;;;;;;;21.99;63.85;100679.58;449650;116;921453;-73
2021/07/11 01:42:53;;;;;;;;;;;;;;;21.98;63.91;100677.91;459428;114;921530;-73
2021/07/11 01:43:58;;;;;;;;;;;;;;;21.97;64.00;100675.42;441920;119;921560;-73
2021/07/11 01:45:03;;;;;;;;;;;;;;;21.95;64.05;100675.70;433429;118;921656;-72
2021/07/11 01:46:07;;;;;;;;;;;;;;;21.94;64.08;100675.98;448975;116;921653;-71
2021/07/11 01:47:11;;;;;;;;;;;;;;;21.92;64.13;100672.64;449613;116;921537;-73
2021/07/11 01:48:15;;;;;;;;;;;;;;;21.90;64.25;100677.64;442484;118;921831;-73
2021/07/11 01:49:20;;;;;;;;;;;;;;;21.88;64.38;100683.51;449912;116;921508;-73
2021/07/11 01:50:28;;;;;;;;;;;;;;;21.87;64.51;100684.63;450196;116;921513;-72
2021/07/11 01:51:32;;;;;;;;;;;;;;;21.86;64.59;100680.17;441658;118;921636;-73
2021/07/11 01:52:36;;;;;;;;;;;;;;;21.86;64.70;100679.34;433966;119;921501;-72
2021/07/11 01:53:41;;;;;;;;;;;;;;;21.88;64.75;100689.06;447971;117;921496;-71
2021/07/11 01:54:44;;;;;;;;;;;;;;;21.90;64.76;100674.87;448383;117;921494;-71
2021/07/11 01:55:48;;;;;;;;;;;;;;;21.91;64.74;100682.92;444902;117;923258;-70
2021/07/11 01:56:52;;;;;;;;;;;;;;;21.93;64.74;100677.09;445314;117;922656;-69
2021/07/11 01:57:57;;;;;;;;;;;;;;;21.95;64.75;100677.64;446015;117;922723;-70
2021/07/11 01:59:01;;;;;;;;;;;;;;;21.95;64.65;100675.70;446981;119;922664;-71
2021/07/11 02:00:14;;;;;;;;;;;;;;;21.96;64.65;100676.53;444316;117;922654;-71
2021/07/11 02:01:20;;;;;;;;;;;;;;;21.96;64.72;100680.14;444140;120;922520;-72
2021/07/11 02:02:26;;;;;;;;;;;;;;;21.96;64.72;100685.69;445668;117;922692;-69
2021/07/11 02:03:32;;;;;;;;;;;;;;;21.94;64.59;100679.59;447253;116;922996;-69
2021/07/11 02:04:37;;;;;;;;;;;;;;;21.94;64.54;100685.14;437664;119;922700;-72
2021/07/11 02:05:41;;;;;;;;;;;;;;;21.93;64.53;100679.86;435113;120;922706;-71
2021/07/11 02:06:44;;;;;;;;;;;;;;;21.93;64.56;100686.25;442292;118;923530;-71
2021/07/11 02:07:50;;;;;;;;;;;;;;;21.93;64.61;100685.42;439193;118;921602;-72
2021/07/11 02:08:53;;;;;;;;;;;;;;;21.93;64.53;100686.25;447971;117;922741;-70
2021/07/11 02:09:58;;;;;;;;;;;;;;;21.94;64.51;100696.24;448127;117;923603;-72
2021/07/11 02:11:03;;;;;;;;;;;;;;;21.96;64.56;100693.19;448460;117;921568;-71
2021/07/11 02:12:08;;;;;;;;;;;;;;;21.98;64.50;100682.64;445092;117;922740;-69
2021/07/11 02:13:32;;;;;;;;;;;;;;;22.00;64.44;100692.32;437001;119;923063;-71
2021/07/11 02:14:39;;;;;;;;;;;;;;;22.02;64.43;100689.27;447320;116;923642;-70
2021/07/11 02:15:47;;;;;;;;;;;;;;;22.03;64.45;100686.20;448680;116;921452;-72
2021/07/11 02:16:58;;;;;;;;;;;;;;;22.05;64.47;100692.28;448070;116;923118;-69
2021/07/11 02:18:08;;;;;;;;;;;;;;;22.08;64.46;100693.67;447353;119;923655;-70
2021/07/11 02:19:13;;;;;;;;;;;;;;;22.10;64.48;100697.00;447852;117;922619;-72
2021/07/11 02:20:19;;;;;;;;;;;;;;;22.14;64.44;100688.91;448656;116;924728;-69
2021/07/11 02:21:25;;;;;;;;;;;;;;;22.16;64.43;100695.02;448481;116;921522;-71
2021/07/11 02:22:29;;;;;;;;;;;;;;;22.18;64.47;100692.76;448700;117;922692;-71
2021/07/11 02:23:34;;;;;;;;;;;;;;;22.19;64.50;100692.48;447391;117;922711;-73
2021/07/11 02:24:39;;;;;;;;;;;;;;;22.22;64.60;100688.31;448316;116;923145;-71
2021/07/11 02:25:48;;;;;;;;;;;;;;;22.24;64.62;100691.61;448548;116;921583;-71
2021/07/11 02:26:52;;;;;;;;;;;;;;;22.27;64.70;100691.88;447204;117;922661;-72
2021/07/11 02:27:57;;;;;;;;;;;;;;;22.29;64.69;100692.39;442716;118;923203;-72
2021/07/11 02:29:02;;;;;;;;;;;;;;;22.31;64.69;100694.89;437249;119;922749;-70
2021/07/11 02:30:12;;;;;;;;;;;;;;;22.33;64.68;100692.63;431084;121;921615;-72
2021/07/11 02:31:13;;;;;;;;;;;;;;;22.35;64.56;100693.19;437847;122;921495;-73
2021/07/11 02:32:18;;;;;;;;;;;;;;;22.37;64.48;100696.52;439646;119;921680;-71
2021/07/11 02:33:32;;;;;;;;;;;;;;;22.37;64.44;100697.34;438867;119;921592;-72
2021/07/11 02:34:34;;;;;;;;;;;;;;;22.38;64.38;100698.17;438481;117;921529;-71
2021/07/11 02:35:41;;;;;;;;;;;;;;;22.37;64.36;100694.57;446894;119;921517;-74
2021/07/11 02:36:48;;;;;;;;;;;;;;;22.38;64.27;100695.40;447260;117;921750;-71
2021/07/11 02:37:53;;;;;;;;;;;;;;;22.38;64.25;100693.42;439314;119;922057;-71
2021/07/11 02:39:00;;;;;;;;;;;;;;;22.38;64.24;100693.42;438679;120;921517;-72
2021/07/11 02:40:05;;;;;;;;;;;;;;;22.39;64.27;100695.09;431423;121;921540;-71
2021/07/11 02:41:10;;;;;;;;;;;;;;;22.40;64.18;100696.75;441838;117;921435;-71
2021/07/11 02:42:14;;;;;;;;;;;;;;;22.41;64.01;100700.36;442100;117;921525;-73
2021/07/11 02:43:18;;;;;;;;;;;;;;;22.43;63.97;100701.75;441147;119;921942;-71
2021/07/11 02:44:22;;;;;;;;;;;;;;;22.44;63.95;100696.98;438944;117;921705;-72
2021/07/11 02:45:26;;;;;;;;;;;;;;;22.44;63.91;100695.04;438612;119;921509;-73
2021/07/11 02:46:37;;;;;;;;;;;;;;;22.46;63.82;100695.59;436303;120;921574;-73
2021/07/11 02:47:43;;;;;;;;;;;;;;;22.47;63.71;100696.42;440987;119;921559;-72
2021/07/11 02:48:47;;;;;;;;;;;;;;;22.49;63.61;100688.64;445582;117;922723;-72
2021/07/11 02:49:52;;;;;;;;;;;;;;;22.49;63.54;100691.42;445345;117;921537;-72
2021/07/11 02:50:56;;;;;;;;;;;;;;;22.52;63.52;100698.33;438694;119;923095;-72
2021/07/11 02:52:00;;;;;;;;;;;;;;;22.53;63.46;100695.27;446139;119;922648;-71
2021/07/11 02:53:04;;;;;;;;;;;;;;;22.55;63.35;100687.44;439367;120;922682;-71
2021/07/11 02:54:10;;;;;;;;;;;;;;;22.58;63.24;100686.88;438129;119;921581;-72
2021/07/11 02:55:17;;;;;;;;;;;;;;;22.60;63.24;100690.20;439580;119;922760;-72
2021/07/11 02:56:23;;;;;;;;;;;;;;;22.62;63.21;100693.50;442119;119;921567;-73
2021/07/11 02:57:28;;;;;;;;;;;;;;;22.65;63.19;100694.88;447480;116;921667;-72
2021/07/11 02:58:31;;;;;;;;;;;;;;;22.66;63.20;100697.34;447359;117;921787;-72
2021/07/11 02:59:35;;;;;;;;;;;;;;;22.68;63.22;100694.28;449551;116;922652;-72
2021/07/11 03:00:41;;;;;;;;;;;;;;;22.69;63.22;100696.78;448881;117;923154;-72
2021/07/11 03:01:45;;;;;;;;;;;;;;;22.71;63.30;100697.36;448653;116;922299;-72
2021/07/11 03:02:51;;;;;;;;;;;;;;;22.72;63.32;100696.22;448416;116;922346;-72
2021/07/11 03:03:57;;;;;;;;;;;;;;;22.75;63.23;100694.81;446242;116;922693;-71
2021/07/11 03:05:02;;;;;;;;;;;;;;;22.77;63.17;100690.60;446775;116;923603;-71
2021/07/11 03:06:05;;;;;;;;;;;;;;;22.78;63.08;100697.83;442353;118;923142;-71
2021/07/11 03:07:09;;;;;;;;;;;;;;;22.81;63.04;100693.64;435133;120;922806;-71
2021/07/11 03:08:13;;;;;;;;;;;;;;;22.83;62.96;100696.94;442126;118;921498;-72
2021/07/11 03:09:17;;;;;;;;;;;;;;;22.84;62.91;100693.88;442667;118;923033;-71
2021/07/11 03:10:20;;;;;;;;;;;;;;;22.86;62.90;100691.64;444041;119;922625;-71
2021/07/11 03:11:27;;;;;;;;;;;;;;;22.91;62.79;100693.54;445300;117;922686;-72
2021/07/11 03:12:32;;;;;;;;;;;;;;;22.94;62.72;100687.38;436807;119;922668;-70
2021/07/11 03:13:35;;;;;;;;;;;;;;;22.97;62.63;100699.88;437475;119;922720;-72
2021/07/11 03:14:40;;;;;;;;;;;;;;;23.00;62.56;100696.48;439991;119;922665;-72
2021/07/11 03:15:44;;;;;;;;;;;;;;;23.03;62.46;100693.14;439012;119;922674;-73
2021/07/11 03:16:53;;;;;;;;;;;;;;;23.06;62.36;100695.31;438955;119;922686;-70
2021/07/11 03:17:56;;;;;;;;;;;;;;;23.07;62.27;100697.81;439218;119;923872;-73
2021/07/11 03:19:01;;;;;;;;;;;;;;;23.09;62.20;100691.96;439491;119;921563;-71
2021/07/11 03:20:06;;;;;;;;;;;;;;;23.11;62.08;100698.03;439214;119;921492;-71
2021/07/11 03:21:12;;;;;;;;;;;;;;;23.14;62.04;100697.47;449192;116;921465;-72
2021/07/11 03:22:21;;;;;;;;;;;;;;;23.15;62.03;100693.56;448617;118;923187;-71
2021/07/11 03:23:27;;;;;;;;;;;;;;;23.17;62.01;100694.91;448625;116;921737;-71
2021/07/11 03:24:31;;;;;;;;;;;;;;;23.19;61.93;100697.41;446388;117;922768;-72
2021/07/11 03:25:37;;;;;;;;;;;;;;;23.19;61.80;100697.41;439170;119;921676;-73
2021/07/11 03:26:41;;;;;;;;;;;;;;;23.19;61.72;100695.45;444918;118;921494;-71
2021/07/11 03:27:44;;;;;;;;;;;;;;;23.19;61.57;100698.23;445833;118;921562;-72
2021/07/11 03:28:48;;;;;;;;;;;;;;;23.19;61.50;100698.23;445427;117;921368;-72
2021/07/11 03:30:02;;;;;;;;;;;;;;;23.19;61.51;100695.45;445764;117;921461;-72
2021/07/11 03:31:07;;;;;;;;;;;;;;;23.19;61.58;100698.23;445988;119;921492;-71
2021/07/11 03:32:11;;;;;;;;;;;;;;;23.20;61.60;100697.12;445747;118;921518;-73
2021/07/11 03:33:15;;;;;;;;;;;;;;;23.21;61.59;100700.73;444984;117;922005;-72
2021/07/11 03:34:19;;;;;;;;;;;;;;;23.23;61.56;100704.03;447191;117;921382;-72
2021/07/11 03:35:24;;;;;;;;;;;;;;;23.25;61.57;100699.00;447054;117;921521;-71
2021/07/11 03:36:29;;;;;;;;;;;;;;;23.25;61.53;100702.63;438078;122;921599;-73
2021/07/11 03:37:36;;;;;;;;;;;;;;;23.26;61.43;100698.72;445395;117;921593;-73
2021/07/11 03:38:44;;;;;;;;;;;;;;;23.27;61.37;100705.08;445796;119;921621;-73
2021/07/11 03:39:49;;;;;;;;;;;;;;;23.27;61.33;100696.73;445865;118;922381;-73
2021/07/11 03:40:55;;;;;;;;;;;;;;;23.28;61.29;100703.96;428199;119;921645;-72
2021/07/11 03:42:01;;;;;;;;;;;;;;;23.27;61.29;100694.78;431852;121;921682;-72
2021/07/11 03:43:07;;;;;;;;;;;;;;;23.29;61.27;100702.84;434349;121;921529;-70
2021/07/11 03:44:12;;;;;;;;;;;;;;;23.28;61.21;100699.23;440538;117;922768;-70
2021/07/11 03:45:15;;;;;;;;;;;;;;;23.28;61.11;100701.18;439582;119;922737;-70
2021/07/11 03:46:20;;;;;;;;;;;;;;;23.27;61.12;100703.13;448487;117;922614;-72
2021/07/11 03:47:26;;;;;;;;;;;;;;;23.26;61.09;100703.45;447928;117;923914;-72
2021/07/11 03:48:34;;;;;;;;;;;;;;;23.25;61.04;100701.79;448293;117;921490;-72
2021/07/11 03:49:39;;;;;;;;;;;;;;;23.23;61.08;100709.59;447249;118;923163;-72
2021/07/11 03:50:44;;;;;;;;;;;;;;;23.21;61.16;100698.75;445322;119;922502;-68
2021/07/11 03:51:48;;;;;;;;;;;;;;;23.20;61.23;100697.12;438331;120;922661;-71
2021/07/11 03:52:56;;;;;;;;;;;;;;;23.19;61.07;100695.45;438379;119;923137;-72
2021/07/11 03:54:00;;;;;;;;;;;;;;;23.18;61.14;100698.52;437813;119;923067;-72
2021/07/11 03:55:03;;;;;;;;;;;;;;;23.16;61.18;100695.20;437311;120;922682;-71
2021/07/11 03:56:07;;;;;;;;;;;;;;;23.15;61.33;100686.05;438477;120;921417;-72
2021/07/11 03:57:10;;;;;;;;;;;;;;;23.15;61.50;100693.56;435724;119;922580;-71
2021/07/11 03:58:15;;;;;;;;;;;;;;;23.15;61.55;100688.83;448790;117;923703;-69
2021/07/11 03:59:19;;;;;;;;;;;;;;;23.16;61.65;100689.62;449142;117;922701;-72
2021/07/11 04:00:22;;;;;;;;;;;;;;;23.17;61.67;100694.91;448464;117;922755;-71
2021/07/11 04:01:28;;;;;;;;;;;;;;;23.18;61.60;100687.39;447625;117;922696;-72
2021/07/11 04:02:34;;;;;;;;;;;;;;;23.20;61.50;100687.94;447838;116;921525;-71
2021/07/11 04:03:38;;;;;;;;;;;;;;;23.22;61.43;100686.50;447741;117;922986;-71
2021/07/11 04:04:42;;;;;;;;;;;;;;;23.24;61.38;100680.65;448157;117;922670;-72
2021/07/11 04:05:46;;;;;;;;;;;;;;;23.26;61.37;100689.54;447884;116;922708;-71
2021/07/11 04:06:51;;;;;;;;;;;;;;;23.27;61.41;100685.61;448164;116;922675;-71
2021/07/11 04:07:56;;;;;;;;;;;;;;;23.27;61.41;100682.83;448112;116;922728;-71
2021/07/11 04:09:01;;;;;;;;;;;;;;;23.28;61.37;100679.75;445171;119;922705;-71
2021/07/11 04:10:04;;;;;;;;;;;;;;;23.30;61.29;100682.25;437952;119;922688;-71
2021/07/11 04:11:08;;;;;;;;;;;;;;;23.32;61.19;100682.80;442683;118;921523;-70
2021/07/11 04:12:11;;;;;;;;;;;;;;;23.35;61.20;100687.75;440346;119;922680;-72
2021/07/11 04:13:15;;;;;;;;;;;;;;;23.37;61.13;100679.11;440717;119;922861;-70
2021/07/11 04:14:19;;;;;;;;;;;;;;;23.39;61.05;100682.41;440991;119;922550;-70
2021/07/11 04:15:23;;;;;;;;;;;;;;;23.41;60.94;100678.22;448479;117;921431;-72
2021/07/11 04:16:28;;;;;;;;;;;;;;;23.44;60.93;100685.13;448500;116;923131;-70
2021/07/11 04:17:33;;;;;;;;;;;;;;;23.45;60.98;100682.05;448526;119;922665;-71
2021/07/11 04:18:39;;;;;;;;;;;;;;;23.47;60.97;100684.58;441978;119;921572;-73
2021/07/11 04:19:45;;;;;;;;;;;;;;;23.47;60.97;100681.80;442546;118;921509;-71
2021/07/11 04:20:50;;;;;;;;;;;;;;;23.50;61.05;100683.97;448796;117;921468;-71
2021/07/11 04:21:55;;;;;;;;;;;;;;;23.51;61.04;100678.11;441364;118;922529;-70
2021/07/11 04:23:00;;;;;;;;;;;;;;;23.53;60.95;100681.44;441299;118;921519;-74
2021/07/11 04:24:04;;;;;;;;;;;;;;;23.55;60.92;100681.95;448940;116;921515;-72
2021/07/11 04:25:09;;;;;;;;;;;;;;;23.57;60.88;100684.44;448500;117;921460;-72
2021/07/11 04:26:13;;;;;;;;;;;;;;;23.59;60.80;100685.81;441449;119;921497;-72
2021/07/11 04:27:16;;;;;;;;;;;;;;;23.63;60.69;100674.89;447490;117;921587;-71
2021/07/11 04:28:20;;;;;;;;;;;;;;;23.66;60.64;100683.47;440768;118;921750;-72
2021/07/11 04:29:23;;;;;;;;;;;;;;;23.69;60.62;100684.84;441173;117;921681;-70
2021/07/11 04:30:27;;;;;;;;;;;;;;;23.72;60.57;100680.61;447208;113;922001;-71
2021/07/11 04:31:30;;;;;;;;;;;;;;;23.75;60.55;100688.37;447347;117;921397;-70
2021/07/11 04:32:34;;;;;;;;;;;;;;;23.77;60.34;100683.31;447065;117;921480;-70
2021/07/11 04:33:38;;;;;;;;;;;;;;;23.78;60.24;100677.46;447448;117;922683;-72
2021/07/11 04:34:41;;;;;;;;;;;;;;;23.81;60.42;100684.40;448314;117;922682;-71
2021/07/11 04:35:45;;;;;;;;;;;;;;;23.83;60.47;100690.48;447986;114;922666;-72
2021/07/11 04:36:48;;;;;;;;;;;;;;;23.84;60.32;100681.83;448532;119;922705;-70
2021/07/11 04:37:51;;;;;;;;;;;;;;;23.86;60.42;100678.75;447806;118;922651;-71
2021/07/11 04:38:54;;;;;;;;;;;;;;;23.88;60.19;100684.83;447313;117;922707;-73
2021/07/11 04:39:58;;;;;;;;;;;;;;;23.90;60.32;100679.80;448301;116;921396;-73
2021/07/11 04:41:02;;;;;;;;;;;;;;;23.91;60.14;100684.25;448553;117;922590;-71
2021/07/11 04:42:05;;;;;;;;;;;;;;;23.92;59.73;100683.12;448221;117;922750;-71
2021/07/11 04:43:09;;;;;;;;;;;;;;;23.93;59.90;100687.54;448439;117;921480;-73
2021/07/11 04:44:13;;;;;;;;;;;;;;;23.95;59.97;100685.30;448134;117;922658;-71
2021/07/11 04:45:17;;;;;;;;;;;;;;;23.96;59.82;100685.00;447463;117;922679;-70
2021/07/11 04:46:21;;;;;;;;;;;;;;;23.99;60.06;100683.55;446937;119;922641;-71
2021/07/11 04:47:25;;;;;;;;;;;;;;;24.00;60.21;100685.21;447285;117;922654;-71
2021/07/11 04:48:29;;;;;;;;;;;;;;;24.03;60.25;100679.89;448090;117;922701;-72
2021/07/11 04:49:33;;;;;;;;;;;;;;;24.05;60.23;100679.56;448478;119;923459;-72
2021/07/11 04:50:37;;;;;;;;;;;;;;;24.08;60.35;100688.16;448815;115;921991;-72
2021/07/11 04:51:40;;;;;;;;;;;;;;;24.10;60.26;100676.70;449028;117;922672;-70
2021/07/11 04:52:43;;;;;;;;;;;;;;;24.11;59.91;100687.55;445882;117;923541;-73
2021/07/11 04:53:47;;;;;;;;;;;;;;;24.14;60.03;100680.55;446426;117;922753;-71
2021/07/11 04:54:51;;;;;;;;;;;;;;;24.16;58.69;100683.02;446267;117;922649;-72
2021/07/11 04:55:55;;;;;;;;;;;;;;;24.17;58.97;100682.72;446244;117;922731;-72
2021/07/11 04:56:58;;;;;;;;;;;;;;;24.20;59.28;100679.38;446587;117;922699;-73
2021/07/11 04:58:02;;;;;;;;;;;;;;;24.23;59.39;100684.33;448617;117;922687;-72
2021/07/11 04:59:05;;;;;;;;;;;;;;;24.25;58.87;100681.25;448685;119;922723;-71
2021/07/11 05:00:10;;;;;;;;;;;;;;;24.27;58.87;100684.55;447729;117;922686;-71
2021/07/11 05:01:14;;;;;;;;;;;;;;;24.30;59.36;100684.78;446772;114;922813;-71
2021/07/11 05:02:17;;;;;;;;;;;;;;;24.32;59.18;100687.24;447288;117;923918;-71
2021/07/11 05:03:20;;;;;;;;;;;;;;;24.36;59.64;100685.53;447393;119;922575;-70
2021/07/11 05:04:23;;;;;;;;;;;;;;;24.37;59.41;100687.98;447006;117;922288;-71
2021/07/11 05:05:27;;;;;;;;;;;;;;;24.40;59.71;100686.56;447144;117;922715;-72
2021/07/11 05:06:30;;;;;;;;;;;;;;;24.43;59.75;100681.20;446373;117;922523;-73
2021/07/11 05:07:34;;;;;;;;;;;;;;;24.45;59.68;100683.69;446482;117;922652;-71
2021/07/11 05:08:39;;;;;;;;;;;;;;;24.47;59.72;100682.27;446875;118;922693;-72
2021/07/11 05:09:42;;;;;;;;;;;;;;;24.50;59.61;100683.60;446967;117;922670;-72
2021/07/11 05:10:46;;;;;;;;;;;;;;;24.53;58.71;100683.81;447663;117;922670;-71
2021/07/11 05:11:49;;;;;;;;;;;;;;;24.56;58.31;100687.13;449137;116;923006;-72
2021/07/11 05:12:53;;;;;;;;;;;;;;;24.56;56.61;100689.92;449342;116;923150;-71
2021/07/11 05:13:56;;;;;;;;;;;;;;;24.58;57.56;100685.70;449143;119;922688;-71
2021/07/11 05:15:01;;;;;;;;;;;;;;;24.61;57.26;100684.25;449207;117;922680;-71
2021/07/11 05:16:04;;;;;;;;;;;;;;;24.62;57.55;100686.74;448724;114;922741;-69
2021/07/11 05:17:08;;;;;;;;;;;;;;;24.65;57.08;100686.11;448797;117;922681;-68
2021/07/11 05:18:11;;;;;;;;;;;;;;;24.69;57.84;100686.35;450546;116;922442;-71
2021/07/11 05:19:14;;;;;;;;;;;;;;;24.71;58.44;100682.11;450495;116;921660;-72
2021/07/11 05:20:18;;;;;;;;;;;;;;;24.75;58.51;100690.70;450245;117;921411;-71
2021/07/11 05:21:21;;;;;;;;;;;;;;;24.76;57.75;100682.02;449669;116;921623;-71
2021/07/11 05:22:24;;;;;;;;;;;;;;;24.79;56.76;100686.99;449624;116;921543;-71
2021/07/11 05:23:27;;;;;;;;;;;;;;;24.82;55.86;100688.33;450486;118;922517;-71
2021/07/11 05:24:30;;;;;;;;;;;;;;;24.82;55.58;100683.58;450177;116;923117;-71
2021/07/11 05:25:34;;;;;;;;;;;;;;;24.86;56.53;100689.39;442289;118;922677;-70
2021/07/11 05:26:37;;;;;;;;;;;;;;;24.88;54.95;100689.92;441030;119;923174;-70
2021/07/11 05:27:40;;;;;;;;;;;;;;;24.90;55.98;100691.28;450171;118;923014;-71
2021/07/11 05:28:46;;;;;;;;;;;;;;;24.92;55.69;100688.16;450027;116;922718;-72